createdAt,value
2022-08-31T00:00:35.637Z,16.99
2022-08-31T00:01:35.618Z,16.96
2022-08-31T00:02:35.683Z,16.97
2022-08-31T00:03:35.595Z,16.94
2022-08-31T00:04:35.655Z,16.94
2022-08-31T00:05:35.572Z,16.96
2022-08-31T00:06:35.547Z,16.97
2022-08-31T00:07:35.539Z,16.97
2022-08-31T00:08:35.518Z,16.97
2022-08-31T00:09:35.540Z,16.96
2022-08-31T00:10:37.088Z,16.94
2022-08-31T00:11:35.485Z,16.91
2022-08-31T00:12:35.469Z,16.90
2022-08-31T00:13:35.494Z,16.90
2022-08-31T00:14:35.434Z,16.89
2022-08-31T00:15:35.435Z,16.87
2022-08-31T00:16:35.473Z,16.89
2022-08-31T00:17:35.399Z,16.87
2022-08-31T00:18:35.382Z,16.84
2022-08-31T00:19:35.404Z,16.84
2022-08-31T00:20:35.356Z,16.84
2022-08-31T00:21:35.351Z,16.83
2022-08-31T00:22:35.339Z,16.81
2022-08-31T00:23:35.317Z,16.79
2022-08-31T00:24:35.330Z,16.76
2022-08-31T00:25:35.299Z,16.76
2022-08-31T00:26:35.286Z,16.75
2022-08-31T00:27:35.278Z,16.74
2022-08-31T00:28:35.244Z,16.71
2022-08-31T00:29:35.263Z,16.68
2022-08-31T00:30:35.234Z,16.58
2022-08-31T00:31:35.253Z,16.50
2022-08-31T00:32:35.201Z,16.46
2022-08-31T00:33:35.183Z,16.46
2022-08-31T00:34:35.195Z,16.47
2022-08-31T00:35:35.185Z,16.49
2022-08-31T00:36:35.144Z,16.53
2022-08-31T00:37:35.150Z,16.54
2022-08-31T00:38:35.118Z,16.58
2022-08-31T00:39:35.102Z,16.60
2022-08-31T00:40:44.232Z,16.64
2022-08-31T00:41:35.110Z,16.65
2022-08-31T00:42:35.071Z,16.65
2022-08-31T00:43:35.049Z,16.66
2022-08-31T00:44:35.051Z,16.69
2022-08-31T00:45:35.088Z,16.71
2022-08-31T00:46:35.006Z,16.68
2022-08-31T00:47:35.024Z,16.71
2022-08-31T00:48:34.994Z,16.72
2022-08-31T00:49:34.973Z,16.75
2022-08-31T00:50:34.966Z,16.75
2022-08-31T00:51:34.937Z,16.76
2022-08-31T00:52:37.914Z,16.76
2022-08-31T00:53:34.945Z,16.76
2022-08-31T00:54:34.904Z,16.75
2022-08-31T00:55:34.885Z,16.75
2022-08-31T00:56:34.898Z,16.74
2022-08-31T00:57:34.853Z,16.75
2022-08-31T00:58:34.870Z,16.75
2022-08-31T00:59:34.835Z,16.75
2022-08-31T01:00:34.816Z,16.76
2022-08-31T01:01:34.890Z,16.76
2022-08-31T01:02:34.871Z,16.76
2022-08-31T01:03:34.829Z,16.78
2022-08-31T01:04:34.766Z,16.76
2022-08-31T01:05:34.769Z,16.75
2022-08-31T01:06:34.767Z,16.76
2022-08-31T01:07:34.729Z,16.78
2022-08-31T01:08:34.740Z,16.78
2022-08-31T01:09:34.700Z,16.78
2022-08-31T01:10:34.681Z,16.78
2022-08-31T01:11:34.706Z,16.78
2022-08-31T01:12:34.656Z,16.79
2022-08-31T01:13:34.655Z,16.79
2022-08-31T01:14:34.655Z,16.81
2022-08-31T01:15:34.618Z,16.79
2022-08-31T01:16:34.634Z,16.78
2022-08-31T01:17:34.598Z,16.78
2022-08-31T01:18:34.606Z,16.78
2022-08-31T01:19:34.602Z,16.79
2022-08-31T01:20:34.545Z,16.83
2022-08-31T01:21:34.537Z,16.83
2022-08-31T01:22:34.527Z,16.84
2022-08-31T01:23:34.514Z,16.87
2022-08-31T01:24:34.519Z,16.89
2022-08-31T01:25:34.510Z,16.90
2022-08-31T01:26:34.461Z,16.91
2022-08-31T01:27:34.465Z,16.93
2022-08-31T01:28:34.436Z,16.93
2022-08-31T01:29:34.427Z,16.96
2022-08-31T01:30:34.438Z,16.96
2022-08-31T01:31:34.516Z,16.99
2022-08-31T01:32:34.387Z,16.97
2022-08-31T01:33:34.379Z,16.97
2022-08-31T01:34:34.358Z,16.99
2022-08-31T01:35:34.347Z,16.99
2022-08-31T01:36:34.407Z,16.97
2022-08-31T01:37:34.330Z,16.97
2022-08-31T01:38:34.318Z,17.01
2022-08-31T01:39:34.291Z,16.99
2022-08-31T01:40:34.343Z,16.99
2022-08-31T01:41:34.300Z,16.97
2022-08-31T01:42:34.621Z,16.94
2022-08-31T01:43:34.247Z,16.91
2022-08-31T01:44:34.227Z,16.91
2022-08-31T01:45:34.240Z,16.91
2022-08-31T01:46:34.437Z,16.91
2022-08-31T01:47:34.184Z,16.90
2022-08-31T01:48:34.181Z,16.89
2022-08-31T01:49:34.164Z,16.87
2022-08-31T01:50:34.136Z,16.83
2022-08-31T01:51:34.168Z,16.83
2022-08-31T01:52:34.142Z,16.81
2022-08-31T01:53:34.112Z,16.83
2022-08-31T01:54:34.114Z,16.81
2022-08-31T01:55:34.079Z,16.81
2022-08-31T01:56:34.063Z,16.78
2022-08-31T01:57:34.768Z,16.78
2022-08-31T01:58:34.038Z,16.79
2022-08-31T01:59:34.054Z,16.79
2022-08-31T02:00:34.049Z,16.81
2022-08-31T02:01:34.722Z,16.81
2022-08-31T02:02:34.062Z,16.84
2022-08-31T02:03:33.982Z,16.87
2022-08-31T02:04:33.955Z,16.87
2022-08-31T02:05:33.940Z,16.87
2022-08-31T02:06:33.968Z,16.89
2022-08-31T02:07:33.939Z,16.87
2022-08-31T02:08:33.922Z,16.87
2022-08-31T02:09:33.896Z,16.91
2022-08-31T02:10:33.982Z,16.94
2022-08-31T02:11:33.863Z,16.96
2022-08-31T02:12:33.861Z,16.96
2022-08-31T02:13:33.852Z,16.96
2022-08-31T02:14:33.822Z,16.96
2022-08-31T02:15:33.803Z,16.97
2022-08-31T02:16:33.885Z,16.99
2022-08-31T02:17:33.860Z,16.99
2022-08-31T02:18:33.789Z,17.01
2022-08-31T02:19:33.757Z,17.04
2022-08-31T02:20:33.732Z,17.05
2022-08-31T02:21:33.721Z,17.06
2022-08-31T02:22:33.739Z,17.06
2022-08-31T02:23:33.714Z,17.06
2022-08-31T02:24:33.690Z,17.06
2022-08-31T02:25:33.669Z,17.06
2022-08-31T02:26:33.664Z,17.06
2022-08-31T02:27:33.677Z,17.08
2022-08-31T02:28:33.626Z,17.05
2022-08-31T02:29:33.632Z,17.04
2022-08-31T02:30:33.598Z,17.02
2022-08-31T02:31:33.682Z,17.02
2022-08-31T02:32:33.569Z,16.99
2022-08-31T02:33:33.608Z,16.94
2022-08-31T02:34:33.551Z,16.89
2022-08-31T02:35:33.557Z,16.87
2022-08-31T02:36:35.691Z,16.86
2022-08-31T02:37:33.537Z,16.81
2022-08-31T02:38:33.516Z,16.79
2022-08-31T02:39:33.482Z,16.81
2022-08-31T02:40:33.513Z,16.84
2022-08-31T02:41:33.482Z,16.86
2022-08-31T02:42:53.100Z,16.89
2022-08-31T02:43:33.469Z,16.91
2022-08-31T02:44:33.418Z,16.94
2022-08-31T02:45:33.396Z,16.96
2022-08-31T02:46:33.463Z,16.99
2022-08-31T02:47:33.371Z,17.04
2022-08-31T02:48:33.380Z,17.04
2022-08-31T02:49:33.365Z,17.05
2022-08-31T02:50:33.337Z,17.08
2022-08-31T02:51:33.316Z,17.06
2022-08-31T02:52:33.311Z,17.09
2022-08-31T02:53:33.300Z,17.09
2022-08-31T02:54:33.305Z,17.12
2022-08-31T02:55:33.271Z,17.11
2022-08-31T02:56:33.262Z,17.12
2022-08-31T02:57:33.242Z,17.12
2022-08-31T02:58:33.226Z,17.14
2022-08-31T02:59:33.236Z,17.12
2022-08-31T03:00:33.192Z,17.14
2022-08-31T03:01:33.211Z,17.12
2022-08-31T03:02:33.247Z,17.12
2022-08-31T03:03:33.162Z,17.14
2022-08-31T03:04:33.140Z,17.12
2022-08-31T03:05:33.131Z,17.14
2022-08-31T03:06:33.122Z,17.12
2022-08-31T03:07:33.102Z,17.11
2022-08-31T03:08:33.112Z,17.11
2022-08-31T03:09:33.078Z,17.11
2022-08-31T03:10:33.060Z,17.09
2022-08-31T03:11:33.047Z,17.09
2022-08-31T03:12:33.059Z,17.06
2022-08-31T03:13:33.028Z,17.08
2022-08-31T03:14:33.028Z,17.08
2022-08-31T03:15:33.045Z,17.06
2022-08-31T03:16:32.979Z,17.05
2022-08-31T03:17:32.968Z,17.08
2022-08-31T03:18:32.988Z,17.08
2022-08-31T03:19:32.946Z,17.06
2022-08-31T03:20:34.504Z,17.05
2022-08-31T03:21:32.919Z,17.02
2022-08-31T03:22:32.901Z,17.05
2022-08-31T03:23:32.913Z,17.04
2022-08-31T03:24:32.894Z,17.06
2022-08-31T03:25:32.864Z,17.06
2022-08-31T03:26:32.850Z,17.06
2022-08-31T03:27:32.832Z,17.06
2022-08-31T03:28:32.818Z,17.05
2022-08-31T03:29:32.825Z,17.08
2022-08-31T03:30:32.789Z,17.09
2022-08-31T03:31:32.857Z,17.09
2022-08-31T03:32:32.770Z,17.09
2022-08-31T03:33:32.778Z,17.08
2022-08-31T03:34:32.784Z,17.08
2022-08-31T03:35:32.739Z,17.09
2022-08-31T03:36:32.706Z,17.09
2022-08-31T03:37:32.723Z,17.08
2022-08-31T03:38:32.721Z,17.06
2022-08-31T03:39:32.679Z,17.05
2022-08-31T03:40:32.787Z,17.06
2022-08-31T03:41:32.640Z,17.05
2022-08-31T03:42:32.628Z,17.06
2022-08-31T03:43:32.616Z,17.06
2022-08-31T03:44:32.601Z,17.08
2022-08-31T03:45:32.621Z,17.08
2022-08-31T03:46:32.636Z,17.06
2022-08-31T03:47:32.570Z,17.08
2022-08-31T03:48:32.550Z,17.08
2022-08-31T03:49:32.525Z,17.09
2022-08-31T03:50:32.552Z,17.08
2022-08-31T03:51:32.505Z,17.08
2022-08-31T03:52:32.526Z,17.09
2022-08-31T03:53:32.484Z,17.09
2022-08-31T03:54:32.478Z,17.08
2022-08-31T03:55:32.462Z,17.08
2022-08-31T03:56:32.474Z,17.08
2022-08-31T03:57:32.437Z,17.06
2022-08-31T03:58:32.431Z,17.06
2022-08-31T03:59:32.407Z,17.06
2022-08-31T04:00:32.393Z,17.05
2022-08-31T04:01:32.478Z,17.05
2022-08-31T04:02:37.376Z,17.05
2022-08-31T04:03:32.379Z,17.05
2022-08-31T04:04:21.644Z,17.06
2022-08-31T04:05:22.617Z,17.06
2022-08-31T04:06:22.609Z,17.05
2022-08-31T04:07:22.590Z,17.05
2022-08-31T04:08:22.616Z,17.05
2022-08-31T04:09:22.552Z,17.06
2022-08-31T04:10:22.555Z,17.04
2022-08-31T04:11:44.345Z,17.01
2022-08-31T04:12:22.540Z,16.99
2022-08-31T04:13:24.716Z,16.94
2022-08-31T04:14:22.500Z,16.90
2022-08-31T04:15:22.480Z,16.90
2022-08-31T04:16:22.547Z,16.91
2022-08-31T04:17:22.463Z,16.90
2022-08-31T04:18:22.438Z,16.89
2022-08-31T04:19:22.432Z,16.90
2022-08-31T04:20:24.566Z,16.90
2022-08-31T04:21:22.398Z,16.93
2022-08-31T04:22:22.420Z,16.93
2022-08-31T04:23:22.366Z,16.93
2022-08-31T04:24:22.447Z,16.96
2022-08-31T04:25:22.352Z,16.97
2022-08-31T04:26:22.332Z,16.99
2022-08-31T04:27:22.347Z,16.99
2022-08-31T04:28:22.319Z,17.01
2022-08-31T04:29:22.288Z,17.01
2022-08-31T04:30:22.281Z,17.02
2022-08-31T04:31:22.332Z,17.04
2022-08-31T04:32:22.285Z,17.05
2022-08-31T04:33:22.275Z,17.05
2022-08-31T04:34:22.223Z,17.06
2022-08-31T04:35:22.210Z,17.06
2022-08-31T04:36:22.187Z,17.05
2022-08-31T04:37:22.203Z,17.05
2022-08-31T04:38:22.210Z,17.05
2022-08-31T04:39:22.152Z,17.05
2022-08-31T04:40:26.065Z,17.05
2022-08-31T04:41:22.122Z,17.06
2022-08-31T04:42:22.117Z,17.06
2022-08-31T04:43:23.766Z,17.08
2022-08-31T04:44:22.084Z,17.09
2022-08-31T04:45:22.083Z,17.09
2022-08-31T04:46:22.176Z,17.09
2022-08-31T04:47:22.047Z,17.11
2022-08-31T04:48:22.062Z,17.11
2022-08-31T04:49:22.048Z,17.08
2022-08-31T04:50:22.006Z,17.08
2022-08-31T04:51:21.997Z,17.08
2022-08-31T04:52:28.258Z,17.06
2022-08-31T04:53:22.001Z,17.05
2022-08-31T04:54:21.984Z,17.06
2022-08-31T04:55:21.933Z,17.08
2022-08-31T04:56:21.926Z,17.06
2022-08-31T04:57:22.003Z,17.05
2022-08-31T04:58:21.904Z,17.02
2022-08-31T04:59:21.911Z,17.04
2022-08-31T05:00:21.893Z,17.02
2022-08-31T05:01:21.949Z,17.02
2022-08-31T05:02:22.027Z,17.02
2022-08-31T05:03:21.839Z,17.04
2022-08-31T05:04:21.829Z,17.04
2022-08-31T05:05:21.824Z,17.01
2022-08-31T05:06:21.788Z,16.99
2022-08-31T05:07:21.796Z,17.01
2022-08-31T05:08:21.783Z,16.99
2022-08-31T05:09:21.750Z,17.01
2022-08-31T05:10:21.739Z,16.99
2022-08-31T05:11:24.839Z,17.01
2022-08-31T05:12:21.731Z,16.99
2022-08-31T05:13:21.699Z,16.99
2022-08-31T05:14:21.701Z,16.99
2022-08-31T05:15:21.666Z,16.96
2022-08-31T05:16:21.704Z,16.96
2022-08-31T05:17:21.641Z,16.94
2022-08-31T05:18:21.656Z,16.96
2022-08-31T05:19:21.607Z,16.99
2022-08-31T05:20:21.603Z,16.97
2022-08-31T05:21:21.595Z,16.99
2022-08-31T05:22:21.600Z,16.99
2022-08-31T05:23:21.567Z,17.02
2022-08-31T05:24:21.545Z,17.02
2022-08-31T05:25:21.545Z,17.01
2022-08-31T05:26:26.047Z,17.04
2022-08-31T05:27:21.510Z,17.02
2022-08-31T05:28:21.525Z,16.96
2022-08-31T05:29:21.497Z,16.89
2022-08-31T05:30:21.476Z,16.89
2022-08-31T05:31:21.682Z,16.87
2022-08-31T05:32:21.431Z,16.87
2022-08-31T05:33:21.454Z,16.87
2022-08-31T05:34:21.409Z,16.89
2022-08-31T05:35:21.421Z,16.90
2022-08-31T05:36:21.384Z,16.90
2022-08-31T05:37:21.367Z,16.91
2022-08-31T05:38:21.387Z,16.91
2022-08-31T05:39:21.345Z,16.93
2022-08-31T05:40:21.366Z,16.94
2022-08-31T05:41:21.326Z,16.94
2022-08-31T05:42:21.295Z,16.96
2022-08-31T05:43:21.320Z,16.97
2022-08-31T05:44:21.455Z,16.97
2022-08-31T05:45:21.259Z,16.99
2022-08-31T05:46:21.284Z,17.01
2022-08-31T05:47:21.240Z,17.01
2022-08-31T05:48:21.247Z,17.04
2022-08-31T05:49:21.202Z,17.04
2022-08-31T05:50:21.191Z,17.01
2022-08-31T05:51:21.181Z,17.01
2022-08-31T05:52:24.852Z,17.02
2022-08-31T05:53:21.178Z,16.97
2022-08-31T05:54:21.143Z,17.01
2022-08-31T05:55:21.141Z,16.99
2022-08-31T05:56:21.149Z,16.97
2022-08-31T05:57:25.802Z,16.97
2022-08-31T05:58:21.121Z,16.97
2022-08-31T05:59:21.079Z,16.97
2022-08-31T06:00:21.060Z,16.99
2022-08-31T06:01:21.164Z,17.01
2022-08-31T06:02:21.098Z,17.01
2022-08-31T06:03:21.012Z,17.02
2022-08-31T06:04:21.006Z,17.04
2022-08-31T06:05:21.051Z,17.06
2022-08-31T06:06:20.979Z,17.05
2022-08-31T06:07:20.992Z,17.06
2022-08-31T06:08:26.852Z,17.04
2022-08-31T06:09:21.099Z,17.02
2022-08-31T06:10:20.920Z,17.02
2022-08-31T06:11:20.918Z,17.04
2022-08-31T06:12:20.895Z,17.06
2022-08-31T06:13:20.885Z,17.06
2022-08-31T06:14:20.896Z,17.06
2022-08-31T06:15:20.865Z,17.08
2022-08-31T06:16:20.891Z,17.08
2022-08-31T06:17:20.833Z,17.11
2022-08-31T06:18:20.839Z,17.11
2022-08-31T06:19:20.837Z,17.12
2022-08-31T06:20:20.795Z,17.14
2022-08-31T06:21:20.824Z,17.14
2022-08-31T06:22:20.776Z,17.19
2022-08-31T06:23:20.886Z,17.16
2022-08-31T06:24:20.767Z,17.20
2022-08-31T06:25:20.724Z,17.20
2022-08-31T06:26:20.741Z,17.20
2022-08-31T06:27:20.691Z,17.20
2022-08-31T06:28:20.695Z,17.23
2022-08-31T06:29:20.665Z,17.23
2022-08-31T06:30:20.681Z,17.24
2022-08-31T06:31:20.708Z,17.23
2022-08-31T06:32:20.620Z,17.20
2022-08-31T06:33:20.768Z,17.20
2022-08-31T06:34:20.600Z,17.19
2022-08-31T06:35:20.585Z,17.15
2022-08-31T06:36:20.613Z,17.14
2022-08-31T06:37:20.565Z,17.15
2022-08-31T06:38:20.573Z,17.19
2022-08-31T06:39:20.533Z,17.19
2022-08-31T06:40:20.642Z,17.19
2022-08-31T06:41:20.499Z,17.20
2022-08-31T06:42:20.485Z,17.20
2022-08-31T06:43:20.725Z,17.22
2022-08-31T06:44:20.464Z,17.19
2022-08-31T06:45:20.460Z,17.16
2022-08-31T06:46:20.536Z,17.15
2022-08-31T06:47:23.938Z,17.12
2022-08-31T06:48:20.410Z,17.09
2022-08-31T06:49:20.406Z,17.09
2022-08-31T06:50:20.406Z,17.06
2022-08-31T06:51:20.377Z,17.04
2022-08-31T06:52:20.358Z,16.99
2022-08-31T06:53:20.527Z,16.96
2022-08-31T06:54:35.762Z,16.97
2022-08-31T06:55:20.331Z,17.01
2022-08-31T06:56:21.330Z,17.04
2022-08-31T06:57:20.350Z,17.08
2022-08-31T06:58:20.271Z,17.14
2022-08-31T06:59:20.268Z,17.14
2022-08-31T07:00:20.245Z,17.19
2022-08-31T07:01:26.129Z,17.22
2022-08-31T07:02:20.383Z,17.22
2022-08-31T07:03:20.353Z,17.26
2022-08-31T07:04:20.193Z,17.27
2022-08-31T07:05:24.478Z,17.30
2022-08-31T07:06:20.215Z,17.31
2022-08-31T07:07:20.188Z,17.33
2022-08-31T07:08:20.141Z,17.33
2022-08-31T07:09:20.135Z,17.34
2022-08-31T07:10:20.110Z,17.38
2022-08-31T07:11:20.119Z,17.36
2022-08-31T07:12:20.117Z,17.36
2022-08-31T07:13:20.402Z,17.38
2022-08-31T07:14:20.062Z,17.38
2022-08-31T07:15:20.071Z,17.38
2022-08-31T07:16:20.069Z,17.38
2022-08-31T07:17:20.046Z,17.38
2022-08-31T07:18:20.006Z,17.38
2022-08-31T07:19:20.014Z,17.36
2022-08-31T07:20:20.004Z,17.38
2022-08-31T07:21:19.966Z,17.36
2022-08-31T07:22:19.951Z,17.39
2022-08-31T07:23:20.099Z,17.38
2022-08-31T07:24:19.926Z,17.39
2022-08-31T07:25:19.935Z,17.39
2022-08-31T07:26:19.902Z,17.39
2022-08-31T07:27:19.901Z,17.38
2022-08-31T07:28:19.870Z,17.39
2022-08-31T07:29:19.861Z,17.42
2022-08-31T07:30:19.869Z,17.44
2022-08-31T07:31:19.859Z,17.46
2022-08-31T07:32:19.847Z,17.46
2022-08-31T07:33:20.119Z,17.48
2022-08-31T07:34:19.791Z,17.48
2022-08-31T07:35:19.785Z,17.49
2022-08-31T07:36:19.777Z,17.49
2022-08-31T07:37:19.800Z,17.49
2022-08-31T07:38:19.745Z,17.51
2022-08-31T07:39:19.731Z,17.49
2022-08-31T07:40:19.769Z,17.51
2022-08-31T07:41:19.726Z,17.52
2022-08-31T07:42:20.173Z,17.54
2022-08-31T07:43:19.911Z,17.56
2022-08-31T07:44:19.699Z,17.56
2022-08-31T07:45:19.647Z,17.57
2022-08-31T07:46:19.757Z,17.57
2022-08-31T07:47:19.648Z,17.59
2022-08-31T07:48:19.618Z,17.60
2022-08-31T07:49:19.590Z,17.59
2022-08-31T07:50:19.615Z,17.57
2022-08-31T07:51:19.563Z,17.59
2022-08-31T07:52:19.548Z,17.57
2022-08-31T07:53:19.689Z,17.60
2022-08-31T07:54:19.552Z,17.59
2022-08-31T07:55:19.545Z,17.60
2022-08-31T07:56:19.502Z,17.63
2022-08-31T07:57:19.492Z,17.64
2022-08-31T07:58:19.483Z,17.64
2022-08-31T07:59:19.458Z,17.64
2022-08-31T08:00:20.891Z,17.64
2022-08-31T08:01:19.464Z,17.65
2022-08-31T08:02:19.691Z,17.67
2022-08-31T08:03:19.738Z,17.70
2022-08-31T08:04:19.395Z,17.70
2022-08-31T08:05:19.425Z,17.74
2022-08-31T08:06:19.393Z,17.79
2022-08-31T08:07:19.366Z,17.82
2022-08-31T08:08:19.356Z,17.82
2022-08-31T08:09:24.381Z,17.83
2022-08-31T08:10:19.339Z,17.83
2022-08-31T08:11:19.298Z,17.83
2022-08-31T08:12:19.279Z,17.86
2022-08-31T08:13:19.422Z,17.89
2022-08-31T08:14:19.255Z,17.90
2022-08-31T08:15:19.238Z,17.94
2022-08-31T08:16:19.305Z,17.95
2022-08-31T08:17:19.217Z,17.97
2022-08-31T08:18:19.210Z,17.97
2022-08-31T08:19:19.215Z,18.00
2022-08-31T08:20:19.182Z,18.01
2022-08-31T08:21:19.178Z,18.03
2022-08-31T08:22:35.631Z,18.01
2022-08-31T08:23:28.685Z,18.04
2022-08-31T08:24:19.125Z,18.03
2022-08-31T08:25:19.129Z,18.04
2022-08-31T08:26:21.745Z,18.05
2022-08-31T08:27:19.117Z,18.08
2022-08-31T08:29:19.061Z,18.11
2022-08-31T08:30:19.045Z,18.11
2022-08-31T08:31:19.137Z,18.13
2022-08-31T08:32:19.063Z,18.13
2022-08-31T08:33:19.179Z,18.13
2022-08-31T08:34:18.990Z,18.13
2022-08-31T08:35:18.977Z,18.16
2022-08-31T08:36:18.966Z,18.18
2022-08-31T08:37:31.025Z,18.20
2022-08-31T08:38:18.957Z,18.20
2022-08-31T08:39:18.951Z,18.20
2022-08-31T08:40:18.944Z,18.20
2022-08-31T08:41:18.895Z,18.23
2022-08-31T08:42:18.884Z,18.25
2022-08-31T08:43:19.079Z,18.25
2022-08-31T08:44:18.894Z,18.28
2022-08-31T08:45:18.845Z,18.29
2022-08-31T08:46:34.076Z,18.33
2022-08-31T08:47:18.831Z,18.34
2022-08-31T08:48:18.820Z,18.35
2022-08-31T08:49:18.814Z,18.35
2022-08-31T08:50:18.812Z,18.38
2022-08-31T08:51:18.778Z,18.38
2022-08-31T08:52:18.767Z,18.37
2022-08-31T08:53:18.897Z,18.35
2022-08-31T08:54:18.727Z,18.34
2022-08-31T08:55:18.742Z,18.34
2022-08-31T08:56:32.792Z,18.35
2022-08-31T08:57:18.691Z,18.40
2022-08-31T08:58:18.704Z,18.41
2022-08-31T08:59:19.966Z,18.43
2022-08-31T09:00:18.669Z,18.43
2022-08-31T09:01:18.673Z,18.41
2022-08-31T09:02:18.647Z,18.38
2022-08-31T09:03:18.709Z,18.41
2022-08-31T09:04:18.592Z,18.44
2022-08-31T09:05:18.577Z,18.43
2022-08-31T09:06:18.565Z,18.43
2022-08-31T09:07:18.555Z,18.43
2022-08-31T09:08:18.571Z,18.43
2022-08-31T09:09:18.532Z,18.41
2022-08-31T09:10:18.634Z,18.43
2022-08-31T09:11:18.491Z,18.41
2022-08-31T09:12:18.482Z,18.41
2022-08-31T09:13:18.780Z,18.43
2022-08-31T09:14:18.497Z,18.43
2022-08-31T09:15:18.453Z,18.44
2022-08-31T09:16:18.451Z,18.43
2022-08-31T09:17:18.442Z,18.40
2022-08-31T09:18:18.413Z,18.38
2022-08-31T09:19:18.432Z,18.34
2022-08-31T09:20:18.433Z,18.29
2022-08-31T09:21:18.431Z,18.26
2022-08-31T09:22:18.369Z,18.25
2022-08-31T09:23:18.517Z,18.23
2022-08-31T09:24:18.330Z,18.23
2022-08-31T09:25:18.468Z,18.22
2022-08-31T09:26:18.328Z,18.22
2022-08-31T09:27:18.485Z,18.23
2022-08-31T09:28:18.316Z,18.22
2022-08-31T09:29:18.252Z,18.22
2022-08-31T09:30:18.329Z,18.23
2022-08-31T09:31:18.282Z,18.20
2022-08-31T09:32:18.236Z,18.20
2022-08-31T09:33:18.474Z,18.19
2022-08-31T09:34:18.203Z,18.19
2022-08-31T09:35:18.183Z,18.19
2022-08-31T09:36:18.191Z,18.18
2022-08-31T09:37:18.200Z,18.18
2022-08-31T09:38:18.142Z,18.16
2022-08-31T09:39:18.134Z,18.15
2022-08-31T09:40:23.262Z,18.11
2022-08-31T09:41:18.129Z,18.11
2022-08-31T09:42:18.094Z,18.08
2022-08-31T09:43:18.357Z,18.08
2022-08-31T09:44:18.062Z,18.05
2022-08-31T09:45:18.053Z,18.04
2022-08-31T09:46:18.130Z,18.04
2022-08-31T09:47:18.017Z,18.01
2022-08-31T09:48:18.011Z,17.98
2022-08-31T09:49:17.990Z,17.95
2022-08-31T09:50:18.011Z,17.95
2022-08-31T09:51:17.964Z,17.97
2022-08-31T09:52:17.961Z,17.95
2022-08-31T09:53:18.181Z,17.95
2022-08-31T09:54:17.972Z,17.97
2022-08-31T09:55:17.937Z,17.97
2022-08-31T09:56:17.902Z,17.95
2022-08-31T09:57:17.891Z,17.95
2022-08-31T09:58:17.880Z,17.95
2022-08-31T09:59:17.863Z,17.97
2022-08-31T10:00:17.887Z,17.95
2022-08-31T10:01:17.973Z,17.97
2022-08-31T10:02:17.852Z,17.95
2022-08-31T10:03:18.058Z,17.95
2022-08-31T10:04:17.842Z,17.94
2022-08-31T10:05:17.885Z,17.95
2022-08-31T10:06:17.800Z,17.90
2022-08-31T10:07:17.795Z,17.89
2022-08-31T10:08:19.687Z,17.89
2022-08-31T10:09:17.763Z,17.87
2022-08-31T10:10:28.056Z,17.87
2022-08-31T10:11:17.725Z,17.86
2022-08-31T10:12:17.715Z,17.86
2022-08-31T10:13:17.849Z,17.87
2022-08-31T10:14:17.686Z,17.85
2022-08-31T10:15:17.659Z,17.85
2022-08-31T10:16:17.708Z,17.85
2022-08-31T10:17:17.616Z,17.83
2022-08-31T10:18:17.611Z,17.83
2022-08-31T10:19:17.603Z,17.82
2022-08-31T10:20:17.586Z,17.79
2022-08-31T10:21:17.593Z,17.79
2022-08-31T10:22:17.568Z,17.79
2022-08-31T10:23:17.776Z,17.78
2022-08-31T10:24:17.538Z,17.80
2022-08-31T10:25:17.513Z,17.80
2022-08-31T10:26:17.533Z,17.82
2022-08-31T10:27:17.490Z,17.80
2022-08-31T10:28:17.477Z,17.80
2022-08-31T10:29:22.847Z,17.82
2022-08-31T10:30:17.485Z,17.79
2022-08-31T10:31:17.585Z,17.79
2022-08-31T10:32:17.428Z,17.78
2022-08-31T10:33:17.476Z,17.74
2022-08-31T10:34:17.399Z,17.71
2022-08-31T10:35:17.414Z,17.71
2022-08-31T10:36:17.391Z,17.67
2022-08-31T10:37:17.359Z,17.57
2022-08-31T10:38:20.169Z,17.41
2022-08-31T10:39:17.323Z,17.33
2022-08-31T10:40:17.420Z,17.33
2022-08-31T10:41:17.299Z,17.33
2022-08-31T10:42:17.291Z,17.31
2022-08-31T10:43:17.301Z,17.30
2022-08-31T10:44:17.260Z,17.31
2022-08-31T10:45:18.838Z,17.34
2022-08-31T10:46:17.355Z,17.34
2022-08-31T10:47:22.873Z,17.34
2022-08-31T10:48:17.252Z,17.36
2022-08-31T10:49:17.192Z,17.38
2022-08-31T10:50:17.181Z,17.38
2022-08-31T10:51:17.168Z,17.36
2022-08-31T10:52:17.176Z,17.39
2022-08-31T10:53:17.151Z,17.39
2022-08-31T10:54:17.144Z,17.38
2022-08-31T10:55:17.140Z,17.41
2022-08-31T10:56:17.108Z,17.39
2022-08-31T10:57:21.284Z,17.39
2022-08-31T10:58:17.097Z,17.41
2022-08-31T10:59:17.056Z,17.42
2022-08-31T11:00:17.071Z,17.41
2022-08-31T11:01:17.100Z,17.44
2022-08-31T11:02:17.023Z,17.46
2022-08-31T11:03:17.003Z,17.48
2022-08-31T11:04:17.046Z,17.48
2022-08-31T11:05:17.035Z,17.46
2022-08-31T11:06:16.966Z,17.48
2022-08-31T11:07:16.948Z,17.49
2022-08-31T11:08:16.959Z,17.52
2022-08-31T11:09:16.925Z,17.51
2022-08-31T11:10:16.966Z,17.49
2022-08-31T11:11:16.897Z,17.52
2022-08-31T11:12:16.908Z,17.54
2022-08-31T11:13:16.979Z,17.54
2022-08-31T11:14:16.857Z,17.54
2022-08-31T11:15:16.897Z,17.60
2022-08-31T11:16:16.956Z,17.59
2022-08-31T11:17:16.830Z,17.63
2022-08-31T11:18:16.801Z,17.63
2022-08-31T11:19:16.847Z,17.63
2022-08-31T11:20:16.820Z,17.64
2022-08-31T11:21:16.803Z,17.68
2022-08-31T11:22:16.814Z,17.70
2022-08-31T11:23:16.776Z,17.68
2022-08-31T11:24:16.720Z,17.68
2022-08-31T11:25:16.748Z,17.71
2022-08-31T11:26:16.730Z,17.72
2022-08-31T11:27:16.734Z,17.74
2022-08-31T11:28:16.679Z,17.78
2022-08-31T11:29:16.649Z,17.78
2022-08-31T11:30:16.656Z,17.79
2022-08-31T11:31:16.682Z,17.76
2022-08-31T11:32:16.670Z,17.76
2022-08-31T11:33:16.608Z,17.72
2022-08-31T11:34:17.464Z,17.72
2022-08-31T11:35:16.713Z,17.74
2022-08-31T11:36:16.592Z,17.78
2022-08-31T11:37:16.552Z,17.80
2022-08-31T11:38:16.546Z,17.80
2022-08-31T11:39:16.549Z,17.83
2022-08-31T11:40:16.563Z,17.86
2022-08-31T11:41:16.489Z,17.90
2022-08-31T11:42:16.489Z,17.94
2022-08-31T11:43:16.607Z,17.95
2022-08-31T11:44:16.451Z,17.97
2022-08-31T11:45:16.449Z,18.00
2022-08-31T11:46:17.573Z,18.01
2022-08-31T11:47:16.468Z,18.01
2022-08-31T11:48:16.406Z,18.01
2022-08-31T11:49:16.382Z,17.98
2022-08-31T11:50:16.407Z,17.98
2022-08-31T11:51:16.360Z,17.95
2022-08-31T11:52:16.421Z,17.98
2022-08-31T11:53:16.335Z,17.97
2022-08-31T11:54:16.324Z,17.98
2022-08-31T11:55:16.310Z,17.94
2022-08-31T11:56:16.352Z,17.90
2022-08-31T11:57:16.293Z,17.89
2022-08-31T11:58:20.146Z,17.89
2022-08-31T11:59:16.258Z,17.89
2022-08-31T12:00:16.249Z,17.90
2022-08-31T12:01:16.247Z,17.89
2022-08-31T12:02:16.246Z,17.90
2022-08-31T12:03:16.227Z,17.90
2022-08-31T12:04:20.495Z,17.92
2022-08-31T12:05:16.203Z,17.94
2022-08-31T12:06:16.186Z,17.95
2022-08-31T12:07:16.159Z,18.00
2022-08-31T12:08:16.170Z,18.01
2022-08-31T12:09:16.119Z,18.04
2022-08-31T12:10:16.109Z,18.04
2022-08-31T12:11:16.107Z,18.07
2022-08-31T12:12:16.082Z,18.08
2022-08-31T12:13:16.081Z,18.08
2022-08-31T12:14:16.053Z,18.07
2022-08-31T12:15:16.061Z,18.07
2022-08-31T12:16:16.074Z,18.07
2022-08-31T12:17:16.017Z,18.07
2022-08-31T12:18:16.047Z,18.05
2022-08-31T12:19:15.989Z,18.04
2022-08-31T12:20:15.986Z,18.04
2022-08-31T12:21:15.996Z,18.05
2022-08-31T12:22:15.956Z,18.04
2022-08-31T12:23:30.451Z,18.04
2022-08-31T12:24:18.754Z,18.04
2022-08-31T12:25:15.905Z,18.04
2022-08-31T12:26:15.898Z,18.03
2022-08-31T12:27:15.892Z,18.05
2022-08-31T12:28:15.907Z,18.05
2022-08-31T12:29:15.855Z,18.07
2022-08-31T12:30:15.866Z,18.04
2022-08-31T12:31:15.880Z,18.00
2022-08-31T12:32:15.862Z,17.95
2022-08-31T12:33:15.801Z,17.87
2022-08-31T12:34:15.807Z,17.86
2022-08-31T12:35:15.780Z,17.83
2022-08-31T12:36:15.782Z,17.80
2022-08-31T12:37:15.822Z,17.80
2022-08-31T12:38:15.737Z,17.78
2022-08-31T12:39:15.726Z,17.71
2022-08-31T12:40:15.809Z,17.68
2022-08-31T12:41:15.721Z,17.64
2022-08-31T12:42:15.719Z,17.63
2022-08-31T12:43:15.701Z,17.60
2022-08-31T12:44:15.685Z,17.63
2022-08-31T12:45:15.640Z,17.60
2022-08-31T12:46:15.684Z,17.60
2022-08-31T12:47:15.615Z,17.60
2022-08-31T12:48:15.597Z,17.59
2022-08-31T12:49:15.623Z,17.54
2022-08-31T12:50:17.797Z,17.51
2022-08-31T12:51:15.584Z,17.46
2022-08-31T12:52:15.561Z,17.46
2022-08-31T12:53:15.533Z,17.44